createdAt,value
2022-08-03T00:00:29.788Z,29.20
2022-08-03T00:02:56.597Z,29.70
2022-08-03T00:05:23.557Z,29.40
2022-08-03T00:07:50.438Z,30.00
2022-08-03T00:10:17.372Z,30.20
2022-08-03T00:12:44.355Z,29.90
2022-08-03T00:15:16.506Z,30.10
2022-08-03T00:17:53.259Z,29.50
2022-08-03T00:20:22.175Z,29.60
2022-08-03T00:22:49.681Z,30.00
2022-08-03T00:25:16.945Z,30.60
2022-08-03T00:27:43.805Z,30.70
2022-08-03T00:30:10.965Z,31.00
2022-08-03T00:32:38.764Z,30.90
2022-08-03T00:35:18.058Z,31.70
2022-08-03T00:37:59.271Z,32.30
2022-08-03T00:40:26.621Z,33.00
2022-08-03T00:42:56.047Z,33.50
2022-08-03T00:45:28.835Z,34.80
2022-08-03T00:47:56.273Z,35.10
2022-08-03T00:50:25.164Z,34.80
2022-08-03T00:52:54.451Z,34.70
2022-08-03T00:55:21.845Z,35.20
2022-08-03T00:57:49.586Z,35.70
2022-08-03T01:00:22.802Z,35.60
2022-08-03T01:02:50.475Z,34.70
2022-08-03T01:05:17.873Z,35.10
2022-08-03T01:08:03.316Z,34.50
2022-08-03T01:11:10.200Z,35.10
2022-08-03T01:14:18.366Z,34.70
2022-08-03T01:17:18.244Z,35.50
2022-08-03T01:20:02.123Z,35.50
2022-08-03T01:22:41.050Z,36.00
2022-08-03T01:25:58.240Z,35.60
2022-08-03T01:28:24.986Z,36.50
2022-08-03T01:30:55.591Z,36.60
2022-08-03T01:33:35.731Z,36.70
2022-08-03T01:36:09.621Z,36.60
2022-08-03T01:38:38.679Z,36.80
2022-08-03T01:41:10.873Z,36.70
2022-08-03T01:44:26.756Z,37.40
2022-08-03T01:46:28.665Z,37.40
2022-08-03T01:48:56.533Z,37.20
2022-08-03T01:51:23.485Z,36.80
2022-08-03T01:53:55.139Z,36.90
2022-08-03T01:56:26.105Z,37.50
2022-08-03T01:58:55.524Z,38.00
2022-08-03T02:01:24.123Z,38.20
2022-08-03T02:03:59.982Z,37.60
2022-08-03T02:07:00.173Z,37.80
2022-08-03T02:09:20.935Z,37.90
2022-08-03T02:11:48.976Z,38.00
2022-08-03T02:14:16.865Z,37.40
2022-08-03T02:16:46.009Z,38.40
2022-08-03T02:19:14.675Z,38.50
2022-08-03T02:21:56.486Z,38.90
2022-08-03T02:24:28.979Z,38.80
2022-08-03T02:26:57.224Z,38.90
2022-08-03T02:29:39.606Z,39.20
2022-08-03T02:32:12.585Z,39.70
2022-08-03T02:34:41.973Z,39.60
2022-08-03T02:37:10.419Z,39.50
2022-08-03T02:39:39.467Z,39.40
2022-08-03T02:42:08.696Z,39.40
2022-08-03T02:44:37.661Z,39.60
2022-08-03T02:47:09.647Z,39.40
2022-08-03T02:49:49.847Z,39.20
2022-08-03T02:52:20.730Z,39.60
2022-08-03T02:54:51.333Z,39.20
2022-08-03T02:57:21.051Z,39.30
2022-08-03T02:59:48.968Z,39.30
2022-08-03T03:02:18.435Z,40.10
2022-08-03T03:05:51.448Z,40.00
2022-08-03T03:07:51.256Z,40.70
2022-08-03T03:10:22.189Z,40.90
2022-08-03T03:12:54.358Z,41.10
2022-08-03T03:15:22.207Z,40.90
2022-08-03T03:17:51.770Z,41.00
2022-08-03T03:20:29.370Z,40.50
2022-08-03T03:23:00.963Z,40.10
2022-08-03T03:25:31.832Z,40.70
2022-08-03T03:28:02.915Z,40.90
2022-08-03T03:30:30.445Z,40.90
2022-08-03T03:32:58.949Z,40.80
2022-08-03T03:35:27.218Z,41.20
2022-08-03T03:37:54.165Z,42.50
2022-08-03T03:40:22.417Z,42.80
2022-08-03T03:42:50.458Z,42.60
2022-08-03T03:45:17.876Z,42.90
2022-08-03T03:47:44.937Z,42.80
2022-08-03T03:50:12.625Z,42.40
2022-08-03T03:52:39.583Z,42.80
2022-08-03T03:55:07.129Z,42.80
2022-08-03T03:57:34.711Z,43.40
2022-08-03T04:00:01.615Z,43.40
2022-08-03T04:02:28.465Z,43.50
2022-08-03T04:05:14.064Z,43.60
2022-08-03T04:08:16.818Z,44.10
2022-08-03T04:11:00.497Z,44.40
2022-08-03T04:13:36.507Z,43.90
2022-08-03T04:16:04.542Z,43.60
2022-08-03T04:18:33.984Z,44.80
2022-08-03T04:21:05.678Z,44.20
2022-08-03T04:23:35.648Z,44.00
2022-08-03T04:26:04.309Z,44.00
2022-08-03T04:28:33.455Z,44.30
2022-08-03T04:31:02.387Z,43.70
2022-08-03T04:33:32.473Z,43.40
2022-08-03T04:36:03.450Z,43.00
2022-08-03T04:38:36.718Z,43.40
2022-08-03T04:41:04.952Z,43.50
2022-08-03T04:43:34.161Z,43.20
2022-08-03T04:46:02.915Z,44.20
2022-08-03T04:48:29.905Z,43.80
2022-08-03T04:50:57.141Z,43.50
2022-08-03T04:53:24.225Z,44.10
2022-08-03T04:55:51.138Z,44.70
2022-08-03T04:58:17.946Z,45.20
2022-08-03T05:00:45.768Z,44.50
2022-08-03T05:03:23.485Z,44.60
2022-08-03T05:05:52.943Z,44.70
2022-08-03T05:08:27.788Z,44.50
2022-08-03T05:10:55.800Z,44.10
2022-08-03T05:13:26.222Z,43.30
2022-08-03T05:15:53.090Z,43.30
2022-08-03T05:18:20.191Z,43.90
2022-08-03T05:20:47.283Z,42.80
2022-08-03T05:23:14.122Z,42.80
2022-08-03T05:25:41.084Z,42.80
2022-08-03T05:28:16.793Z,41.90
2022-08-03T05:30:43.646Z,42.70
2022-08-03T05:33:13.745Z,41.90
2022-08-03T05:36:10.100Z,41.10
2022-08-03T05:38:44.640Z,40.20
2022-08-03T05:41:22.327Z,39.80
2022-08-03T05:43:54.585Z,39.60
2022-08-03T05:46:26.163Z,39.00
2022-08-03T05:48:55.427Z,38.40
2022-08-03T05:51:27.737Z,38.40
2022-08-03T05:53:54.615Z,38.30
2022-08-03T05:56:25.363Z,37.60
2022-08-03T05:58:53.340Z,36.70
2022-08-03T06:01:24.233Z,35.60
2022-08-03T06:04:02.851Z,34.90
2022-08-03T06:06:32.327Z,34.20
2022-08-03T06:08:59.379Z,34.20
2022-08-03T06:11:26.339Z,33.50
2022-08-03T06:13:53.137Z,32.60
2022-08-03T06:16:19.939Z,32.10
2022-08-03T06:18:46.793Z,31.60
2022-08-03T06:21:15.431Z,30.60
2022-08-03T06:23:54.553Z,31.20
2022-08-03T06:26:26.718Z,31.00
2022-08-03T06:28:54.924Z,30.00
2022-08-03T06:31:32.294Z,29.70
2022-08-03T06:34:34.303Z,30.20
2022-08-03T06:36:50.987Z,30.00
2022-08-03T06:39:19.582Z,29.30
2022-08-03T06:41:46.510Z,28.00
2022-08-03T06:44:13.504Z,27.20
2022-08-03T06:46:40.660Z,26.90
2022-08-03T06:49:07.967Z,26.20
2022-08-03T06:52:04.086Z,25.80
2022-08-03T06:54:24.882Z,24.70
2022-08-03T06:56:52.151Z,24.80
2022-08-03T07:00:09.730Z,24.10
2022-08-03T07:02:05.814Z,23.10
2022-08-03T07:04:33.456Z,23.50
2022-08-03T07:09:56.662Z,23.80
2022-08-03T07:12:52.816Z,23.30
2022-08-03T07:15:54.373Z,24.00
2022-08-03T07:18:17.196Z,22.90
2022-08-03T07:20:54.992Z,24.50
2022-08-03T07:23:21.810Z,24.00
2022-08-03T07:25:48.606Z,23.30
2022-08-03T07:28:15.482Z,23.20
2022-08-03T07:30:42.339Z,22.80
2022-08-03T07:33:17.790Z,22.80
2022-08-03T07:35:44.755Z,23.70
2022-08-03T07:38:11.559Z,24.00
2022-08-03T07:40:44.411Z,22.90
2022-08-03T07:43:13.043Z,22.80
2022-08-03T07:45:39.873Z,22.40
2022-08-03T07:48:12.000Z,23.50
2022-08-03T07:50:39.283Z,21.80
2022-08-03T07:53:06.178Z,22.00
2022-08-03T07:55:33.106Z,21.70
2022-08-03T07:58:05.069Z,21.00
2022-08-03T08:00:32.201Z,21.00
2022-08-03T08:02:59.088Z,19.20
2022-08-03T08:05:26.253Z,17.70
2022-08-03T08:07:53.364Z,17.50
2022-08-03T08:10:20.437Z,19.30
2022-08-03T08:12:48.312Z,17.90
2022-08-03T08:15:15.229Z,16.10
2022-08-03T08:17:51.124Z,17.20
2022-08-03T08:20:30.702Z,14.80
2022-08-03T08:23:19.904Z,15.70
2022-08-03T08:25:54.337Z,15.00
2022-08-03T08:28:32.164Z,15.20
2022-08-03T08:31:00.686Z,15.90
2022-08-03T08:33:37.385Z,13.90
2022-08-03T08:36:15.552Z,11.70
2022-08-03T08:38:44.740Z,12.50
2022-08-03T08:41:13.438Z,12.10
2022-08-03T08:43:40.667Z,9.90
2022-08-03T08:46:11.887Z,12.40
2022-08-03T08:48:42.141Z,10.00
2022-08-03T08:51:09.854Z,10.30
2022-08-03T08:53:38.415Z,10.10
2022-08-03T08:56:07.031Z,10.40
2022-08-03T08:58:38.193Z,11.40
2022-08-03T09:01:05.868Z,9.90
2022-08-03T09:03:36.095Z,11.50
2022-08-03T09:06:04.148Z,9.00
2022-08-03T09:08:32.486Z,7.80
2022-08-03T09:10:59.907Z,6.20
2022-08-03T09:13:26.805Z,8.40
2022-08-03T09:16:14.377Z,6.60
2022-08-03T09:18:47.028Z,5.60
2022-08-03T09:21:35.740Z,6.50
2022-08-03T09:24:08.447Z,6.60
2022-08-03T09:26:40.112Z,6.80
2022-08-03T09:29:14.417Z,6.50
2022-08-03T09:31:46.850Z,5.70
2022-08-03T09:34:16.839Z,6.10
2022-08-03T09:36:50.839Z,5.00
2022-08-03T09:39:40.557Z,6.20
2022-08-03T09:42:18.863Z,6.30
2022-08-03T09:44:52.531Z,5.00
2022-08-03T09:47:33.100Z,5.00
2022-08-03T09:50:02.383Z,5.00
2022-08-03T09:52:49.125Z,5.20
2022-08-03T09:56:30.946Z,5.00
2022-08-03T09:58:10.442Z,5.00
2022-08-03T10:01:01.534Z,5.00
2022-08-03T10:03:30.452Z,5.00
2022-08-03T10:06:00.062Z,5.00
2022-08-03T10:08:27.513Z,5.00
2022-08-03T10:10:54.762Z,5.00
2022-08-03T10:13:23.556Z,5.00
2022-08-03T10:16:21.915Z,5.00
2022-08-03T10:18:37.717Z,5.00
2022-08-03T10:21:08.069Z,5.00
2022-08-03T10:23:37.900Z,5.00
2022-08-03T10:26:07.846Z,5.00
2022-08-03T10:28:45.831Z,5.00
2022-08-03T10:31:14.203Z,5.00
2022-08-03T10:33:52.861Z,5.00
2022-08-03T10:36:24.158Z,5.00
2022-08-03T10:38:53.797Z,5.00
2022-08-03T10:41:21.954Z,5.00
2022-08-03T10:43:59.129Z,5.00
2022-08-03T10:46:27.289Z,5.00
2022-08-03T10:48:56.583Z,5.00
2022-08-03T10:51:24.359Z,5.00
2022-08-03T10:53:54.644Z,5.00
2022-08-03T10:56:54.366Z,5.00
2022-08-03T10:59:46.611Z,5.00
2022-08-03T11:02:15.108Z,5.00
2022-08-03T11:04:42.910Z,5.00
2022-08-03T11:07:21.461Z,5.00
2022-08-03T11:09:57.349Z,5.00
2022-08-03T11:12:30.326Z,5.00
2022-08-03T11:15:01.818Z,5.00
2022-08-03T11:17:29.044Z,5.00
2022-08-03T11:19:57.678Z,5.00
2022-08-03T11:22:25.630Z,5.00
2022-08-03T11:24:54.378Z,5.00
2022-08-03T11:27:23.401Z,5.00
2022-08-03T11:30:10.636Z,5.00
2022-08-03T11:32:40.591Z,5.00
2022-08-03T11:35:14.805Z,5.00
2022-08-03T11:38:08.477Z,5.00
2022-08-03T11:40:47.489Z,5.00
2022-08-03T11:43:26.715Z,5.00
2022-08-03T11:46:08.021Z,5.00
2022-08-03T11:48:40.293Z,5.00
2022-08-03T11:51:19.236Z,5.00
2022-08-03T11:53:47.890Z,5.00
2022-08-03T11:56:14.802Z,5.00
2022-08-03T11:59:10.994Z,5.00
2022-08-03T12:01:41.829Z,5.00
2022-08-03T12:04:08.806Z,5.00
2022-08-03T12:06:54.936Z,5.00
2022-08-03T12:09:22.243Z,5.00
2022-08-03T12:11:59.401Z,5.00
2022-08-03T12:14:49.019Z,5.00
2022-08-03T12:17:16.109Z,5.00
2022-08-03T12:19:44.061Z,5.00
2022-08-03T12:22:11.049Z,5.00
2022-08-03T12:24:42.554Z,5.00
2022-08-03T12:27:09.500Z,5.00
2022-08-03T12:29:36.652Z,5.00
2022-08-03T12:32:03.638Z,5.00
2022-08-03T12:34:47.775Z,5.00
2022-08-03T12:37:19.048Z,5.00
2022-08-03T12:40:07.806Z,5.00
2022-08-03T12:42:38.955Z,5.00
2022-08-03T12:45:26.971Z,5.00
2022-08-03T12:47:56.098Z,5.00
2022-08-03T12:50:34.808Z,5.00
2022-08-03T12:53:05.242Z,5.00
2022-08-03T12:55:57.739Z,5.00
2022-08-03T12:58:36.405Z,5.00
2022-08-03T13:01:09.604Z,5.00
2022-08-03T13:03:43.378Z,5.00
2022-08-03T13:06:17.327Z,5.00
2022-08-03T13:08:46.051Z,5.00
2022-08-03T13:11:55.751Z,5.00
2022-08-03T13:14:20.653Z,5.00
2022-08-03T13:16:49.176Z,5.00
2022-08-03T13:19:16.365Z,5.00
2022-08-03T13:22:01.367Z,5.00
2022-08-03T13:24:31.714Z,5.00
2022-08-03T13:26:59.411Z,5.00
2022-08-03T13:29:26.335Z,5.00
2022-08-03T13:31:53.292Z,5.00
2022-08-03T13:34:23.579Z,5.00
2022-08-03T13:37:09.274Z,5.00
2022-08-03T13:39:57.545Z,5.00
2022-08-03T13:42:24.000Z,5.00
2022-08-03T13:44:50.914Z,5.00
2022-08-03T13:47:18.068Z,5.00
2022-08-03T13:49:59.967Z,5.00
2022-08-03T13:52:30.532Z,5.00
2022-08-03T13:54:57.396Z,5.00
2022-08-03T13:58:06.154Z,5.00
2022-08-03T14:00:12.164Z,5.00
2022-08-03T14:02:39.119Z,5.00
2022-08-03T14:05:06.158Z,5.00
2022-08-03T14:07:33.003Z,5.00
2022-08-03T14:10:01.645Z,5.00
2022-08-03T14:12:28.780Z,5.00
2022-08-03T14:14:58.296Z,5.00
2022-08-03T14:17:28.034Z,5.00
2022-08-03T14:20:37.497Z,5.00
2022-08-03T14:22:57.008Z,5.00
2022-08-03T14:25:23.875Z,5.00
2022-08-03T14:27:50.817Z,5.00
2022-08-03T14:30:17.893Z,5.00
2022-08-03T14:32:44.701Z,5.00
2022-08-03T14:35:11.562Z,5.00
2022-08-03T14:37:38.525Z,5.00
2022-08-03T14:40:06.422Z,5.00
2022-08-03T14:42:33.381Z,5.00
2022-08-03T14:45:03.607Z,5.00
2022-08-03T14:47:34.487Z,5.00
2022-08-03T14:50:36.396Z,5.00
2022-08-03T14:53:07.888Z,5.00
2022-08-03T14:55:39.742Z,5.00
2022-08-03T14:58:19.886Z,5.00
2022-08-03T15:00:49.725Z,5.00
2022-08-03T15:03:17.637Z,5.00
2022-08-03T15:05:44.761Z,5.00
2022-08-03T15:08:11.645Z,5.00
2022-08-03T15:10:40.594Z,5.00
2022-08-03T15:13:12.105Z,5.00
2022-08-03T15:15:39.169Z,5.00
2022-08-03T15:18:06.699Z,5.00
2022-08-03T15:20:44.394Z,5.00
2022-08-03T15:23:12.725Z,5.00
2022-08-03T15:26:03.116Z,5.00
2022-08-03T15:28:26.579Z,5.00
2022-08-03T15:30:53.772Z,5.00
2022-08-03T15:33:20.762Z,5.00
2022-08-03T15:35:47.962Z,5.00
2022-08-03T15:38:15.493Z,5.00
2022-08-03T15:40:42.386Z,5.00
2022-08-03T15:43:09.314Z,5.00
2022-08-03T15:45:40.617Z,5.00
2022-08-03T15:48:08.925Z,5.00
2022-08-03T15:50:35.879Z,5.00
2022-08-03T15:53:02.865Z,5.00
2022-08-03T15:55:31.484Z,5.00
2022-08-03T15:59:03.693Z,5.00
2022-08-03T16:00:45.756Z,5.00
2022-08-03T16:03:12.691Z,5.00
2022-08-03T16:05:39.551Z,5.00
2022-08-03T16:08:10.403Z,5.00
2022-08-03T16:10:40.860Z,5.00
2022-08-03T16:13:08.099Z,5.00
2022-08-03T16:15:38.499Z,5.00
2022-08-03T16:18:06.706Z,5.00
2022-08-03T16:20:35.310Z,5.00
2022-08-03T16:23:10.530Z,5.00
2022-08-03T16:25:44.473Z,5.00
2022-08-03T16:28:17.301Z,5.00
2022-08-03T16:30:46.058Z,5.00
2022-08-03T16:33:17.280Z,5.00
2022-08-03T16:35:45.259Z,5.00
2022-08-03T16:38:18.158Z,5.00
2022-08-03T16:40:47.222Z,5.00
2022-08-03T16:43:18.734Z,5.00
2022-08-03T16:45:47.313Z,5.00
2022-08-03T16:48:15.366Z,5.00
2022-08-03T16:50:42.324Z,5.00
2022-08-03T16:53:15.570Z,5.00
2022-08-03T16:55:53.161Z,5.00
2022-08-03T16:58:41.333Z,5.00
2022-08-03T17:01:24.379Z,5.00
2022-08-03T17:04:03.327Z,5.00
2022-08-03T17:06:38.009Z,5.00
2022-08-03T17:09:18.191Z,5.00
2022-08-03T17:11:47.741Z,5.00
2022-08-03T17:14:17.324Z,5.00
2022-08-03T17:16:52.586Z,5.00
2022-08-03T17:19:26.306Z,5.00
2022-08-03T17:22:01.688Z,5.00
2022-08-03T17:24:44.683Z,5.00
2022-08-03T17:28:42.420Z,5.00
2022-08-03T17:30:12.175Z,5.00
2022-08-03T17:32:42.730Z,5.00
2022-08-03T17:35:20.860Z,5.00
2022-08-03T17:37:57.677Z,5.00
2022-08-03T17:40:25.742Z,5.00
2022-08-03T17:42:53.428Z,5.00
2022-08-03T17:45:20.613Z,5.00
2022-08-03T17:47:57.747Z,5.00
2022-08-03T17:50:33.880Z,5.00
2022-08-03T17:53:14.404Z,5.00
2022-08-03T17:56:04.808Z,5.00
2022-08-03T17:58:41.484Z,5.00
2022-08-03T18:02:02.570Z,5.00
2022-08-03T18:04:30.323Z,5.00
2022-08-03T18:06:59.605Z,5.00
2022-08-03T18:10:03.276Z,5.00
2022-08-03T18:12:27.241Z,5.00
2022-08-03T18:15:08.419Z,5.00
2022-08-03T18:17:55.236Z,5.00
2022-08-03T18:20:32.871Z,5.00
2022-08-03T18:23:06.328Z,5.00
2022-08-03T18:25:42.912Z,5.00
2022-08-03T18:28:14.608Z,5.00
2022-08-03T18:30:53.255Z,5.00
2022-08-03T18:34:19.728Z,5.00
2022-08-03T18:39:05.674Z,5.00
2022-08-03T18:41:35.036Z,5.00
2022-08-03T18:44:06.731Z,5.00
2022-08-03T18:47:15.705Z,5.00
2022-08-03T18:50:12.589Z,5.00
2022-08-03T18:52:57.752Z,5.00
2022-08-03T18:55:33.373Z,5.00
2022-08-03T18:58:17.747Z,5.00
2022-08-03T19:02:01.069Z,5.00
2022-08-03T19:04:24.259Z,5.00
2022-08-03T19:06:58.873Z,5.00
2022-08-03T19:09:46.936Z,5.00
2022-08-03T19:12:39.582Z,5.60
2022-08-03T19:15:13.022Z,6.20
2022-08-03T19:17:50.273Z,7.10
2022-08-03T19:20:26.164Z,6.80
2022-08-03T19:22:55.188Z,6.50
2022-08-03T19:25:34.694Z,6.90
2022-08-03T19:28:06.015Z,8.40
2022-08-03T19:30:40.395Z,7.70
2022-08-03T19:33:15.093Z,8.60
2022-08-03T19:35:55.655Z,9.60
2022-08-03T19:38:28.415Z,10.60
2022-08-03T19:41:14.730Z,10.80
2022-08-03T19:43:57.790Z,11.10
2022-08-03T19:46:30.474Z,12.60
2022-08-03T19:49:15.162Z,11.50
2022-08-03T19:52:01.026Z,13.10
2022-08-03T19:54:36.811Z,13.10
2022-08-03T19:57:18.364Z,13.60
2022-08-03T19:59:49.917Z,13.90
2022-08-03T20:02:26.088Z,14.40
2022-08-03T20:04:56.973Z,14.10
2022-08-03T20:07:25.968Z,14.20
2022-08-03T20:09:56.729Z,15.10
2022-08-03T20:12:27.387Z,16.10
2022-08-03T20:14:59.169Z,16.40
2022-08-03T20:17:54.746Z,17.10
2022-08-03T20:20:21.083Z,17.00
2022-08-03T20:22:54.844Z,17.20
2022-08-03T20:25:38.125Z,17.10
2022-08-03T20:28:15.133Z,17.80
2022-08-03T20:30:44.419Z,16.50
2022-08-03T20:33:18.729Z,17.10
2022-08-03T20:35:49.280Z,17.30
2022-08-03T20:38:18.442Z,17.20
2022-08-03T20:40:46.595Z,17.30
2022-08-03T20:43:14.167Z,18.10
2022-08-03T20:45:59.850Z,18.10
2022-08-03T20:48:28.132Z,19.70
2022-08-03T20:50:56.549Z,19.80
2022-08-03T20:53:59.782Z,19.30
2022-08-03T20:56:10.388Z,19.30
2022-08-03T20:58:37.856Z,19.40
2022-08-03T21:01:09.127Z,20.60
2022-08-03T21:03:41.160Z,20.20
2022-08-03T21:06:27.639Z,20.80
2022-08-03T21:09:04.037Z,20.80
2022-08-03T21:11:43.161Z,22.30
2022-08-03T21:13:05.815Z,5.00
2022-08-03T21:14:38.092Z,23.20
2022-08-03T21:17:14.121Z,23.80
2022-08-03T21:19:52.103Z,23.30
2022-08-03T21:22:22.494Z,22.40
2022-08-03T21:24:55.843Z,22.10
2022-08-03T21:27:24.524Z,21.50
2022-08-03T21:29:53.025Z,21.60
2022-08-03T21:32:32.401Z,22.10
2022-08-03T21:35:01.021Z,21.60
2022-08-03T21:37:28.636Z,21.40
2022-08-03T21:39:56.276Z,21.70
2022-08-03T21:42:23.954Z,21.10
2022-08-03T21:44:52.085Z,21.70
2022-08-03T21:47:21.029Z,21.60
2022-08-03T21:50:07.081Z,21.80
2022-08-03T21:52:46.996Z,21.20
2022-08-03T21:55:20.700Z,21.10
2022-08-03T21:57:52.846Z,20.80
2022-08-03T22:00:21.642Z,21.20
2022-08-03T22:02:56.094Z,20.60
2022-08-03T22:05:42.688Z,20.70
2022-08-03T22:08:13.571Z,21.20
2022-08-03T22:10:43.101Z,21.40
2022-08-03T22:13:10.232Z,21.10
2022-08-03T22:15:37.269Z,21.30
2022-08-03T22:18:05.151Z,20.80
2022-08-03T22:20:32.258Z,21.10
2022-08-03T22:23:02.561Z,21.50
2022-08-03T22:25:31.923Z,21.70
2022-08-03T22:28:01.676Z,21.70
2022-08-03T22:30:29.177Z,22.20
2022-08-03T22:32:57.641Z,22.90
2022-08-03T22:35:26.134Z,21.80
2022-08-03T22:37:54.941Z,22.50
2022-08-03T22:40:22.160Z,21.40
2022-08-03T22:42:51.985Z,22.30
2022-08-03T22:46:06.818Z,23.00
2022-08-03T22:48:08.303Z,21.50
2022-08-03T22:50:35.450Z,21.50
2022-08-03T22:53:02.646Z,22.20
2022-08-03T22:55:29.649Z,21.70
2022-08-03T22:57:56.631Z,22.10
2022-08-03T23:00:24.216Z,22.10
2022-08-03T23:02:53.562Z,22.50
2022-08-03T23:06:00.840Z,22.80
2022-08-03T23:08:15.223Z,23.70
2022-08-03T23:10:46.670Z,23.60
2022-08-03T23:13:17.867Z,23.50
2022-08-03T23:15:55.000Z,23.90
2022-08-03T23:18:23.809Z,23.10
2022-08-03T23:20:52.781Z,22.70
2022-08-03T23:23:20.669Z,23.20
2022-08-03T23:25:49.624Z,22.90
2022-08-03T23:28:17.200Z,22.40
2022-08-03T23:30:45.307Z,23.80
2022-08-03T23:33:16.406Z,23.60
2022-08-03T23:36:29.005Z,22.80
2022-08-03T23:38:49.653Z,22.90
2022-08-03T23:41:18.626Z,23.20
2022-08-03T23:43:53.817Z,22.70
2022-08-03T23:46:22.616Z,22.60
2022-08-03T23:48:51.204Z,23.10
2022-08-03T23:51:30.604Z,23.40
2022-08-03T23:54:18.171Z,22.60
2022-08-03T23:56:59.917Z,22.80
2022-08-03T23:59:40.273Z,23.50
